Terminal Aerodrome Forecast
Issued by NWS

Home | Current Version | Previous Version | Text Only | Print | Product List | Glossary On
Versions: 1 2 3 4 5 6 7 8 9 10 11 12 13 14 15 16
000
FTUS45 KFGZ 272100 AAC
TAFGCN
TAF AMD
KGCN 272131Z 2722/2818 23012G20KT P6SM SCT035 OVC080
      TEMPO 2722/2802 2SM -SHSN BR BKN035 OVC040
     FM280200 25010KT 3SM -SHSNRA SCT020 OVC030=

USA.gov is the U.S. government's official web portal to all federal, state and local government web resources and services.